Time;durP1;ratioP1;P1;durP2;ratioP2;P2;SDS_P1;SDS_P2;PMS_P1;PMS_P2;Temp;Humidity;BMP_temperature;BMP_pressure;BME280_temperature;BME280_humidity;BME280_pressure;Samples;Min_cycle;Max_cycle;Signal;HPM_P1;HPM_P2
2022/09/10 00:01:26;;;;;;;9.43;8.43;;;;;;;17.97;100.00;100041.23;1425076;91;22458;-75
2022/09/10 00:03:53;;;;;;;9.45;7.75;;;;;;;17.92;100.00;100029.49;1414755;91;21579;-76
2022/09/10 00:06:24;;;;;;;11.50;8.03;;;;;;;17.87;100.00;100018.60;1422710;91;21490;-77
2022/09/10 00:08:48;;;;;;;10.53;8.57;;;;;;;17.90;100.00;100025.70;1421039;91;21534;-76
2022/09/10 00:11:14;;;;;;;12.90;7.70;;;;;;;17.88;100.00;100034.44;1415324;91;21637;-76
2022/09/10 00:13:42;;;;;;;9.87;8.93;;;;;;;17.89;100.00;100039.27;1426485;91;22538;-76
2022/09/10 00:16:13;;;;;;;15.33;8.97;;;;;;;17.91;100.00;100040.72;1419897;91;23352;-79
2022/09/10 00:18:40;;;;;;;10.97;7.97;;;;;;;17.94;100.00;100041.65;1426717;91;21741;-78
2022/09/10 00:21:13;;;;;;;9.70;8.33;;;;;;;17.99;100.00;100044.55;1431254;91;21608;-81
2022/09/10 00:23:44;;;;;;;14.30;9.70;;;;;;;18.04;100.00;100034.05;1424696;91;21570;-77
2022/09/10 00:26:17;;;;;;;10.67;9.23;;;;;;;18.04;100.00;100019.84;1422856;91;21601;-77
2022/09/10 00:28:44;;;;;;;11.93;9.77;;;;;;;18.03;100.00;100010.95;1425008;91;22355;-77
2022/09/10 00:31:10;;;;;;;14.73;10.00;;;;;;;18.03;100.00;100009.62;1416028;91;21504;-77
2022/09/10 00:33:36;;;;;;;13.78;10.60;;;;;;;18.02;100.00;100007.98;1423805;91;21550;-77
2022/09/10 00:36:06;;;;;;;14.57;11.63;;;;;;;18.03;100.00;100004.78;1419929;91;22465;-77
2022/09/10 00:38:32;;;;;;;17.62;11.68;;;;;;;18.05;100.00;100009.43;1423687;91;21495;-77
2022/09/10 00:41:07;;;;;;;11.08;9.98;;;;;;;18.09;100.00;100008.49;1426386;91;21705;-77
2022/09/10 00:44:01;;;;;;;13.20;11.95;;;;;;;18.10;100.00;100004.80;1436314;91;21622;-77
2022/09/10 00:46:44;;;;;;;12.37;10.60;;;;;;;18.07;100.00;100001.17;1428397;91;21482;-77
2022/09/10 00:49:24;;;;;;;15.27;11.47;;;;;;;18.03;100.00;100000.25;1398427;91;22458;-77
2022/09/10 00:51:52;;;;;;;20.50;12.35;;;;;;;18.02;100.00;99997.80;1427896;91;21473;-77
2022/09/10 00:54:23;;;;;;;13.45;10.75;;;;;;;17.99;100.00;99986.98;1425286;91;21489;-77
2022/09/10 00:56:51;;;;;;;;;;;;;;;18.00;100.00;99986.45;1433584;91;21695;-77
2022/09/10 00:59:20;;;;;;;22.67;11.87;;;;;;;17.99;100.00;99977.61;1420990;91;20454;-78
2022/09/10 01:01:48;;;;;;;13.70;11.30;;;;;;;17.97;100.00;99974.30;1423618;91;21601;-77
2022/09/10 01:04:14;;;;;;;12.33;10.90;;;;;;;17.89;100.00;99969.16;1425288;91;21453;-77
2022/09/10 01:06:44;;;;;;;30.03;11.47;;;;;;;17.89;100.00;99977.19;1429442;91;22316;-77
2022/09/10 01:09:13;;;;;;;12.88;11.68;;;;;;;17.91;100.00;99975.66;1402439;91;22241;-77
2022/09/10 01:12:20;;;;;;;11.73;10.40;;;;;;;17.93;100.00;99979.78;1423408;91;21697;-77
2022/09/10 01:15:23;;;;;;;18.57;10.97;;;;;;;17.89;100.00;99985.22;1429503;91;21653;-77
2022/09/10 01:17:56;;;;;;;16.70;11.53;;;;;;;17.88;100.00;99982.23;1418756;91;22510;-77
2022/09/10 01:20:49;;;;;;;12.23;10.70;;;;;;;17.92;100.00;99975.43;1423172;91;21482;-77
2022/09/10 01:23:43;;;;;;;15.03;11.70;;;;;;;17.96;100.00;99961.95;1475874;87;21678;-75
2022/09/10 01:26:44;;;;;;;15.30;11.10;;;;;;;18.00;100.00;99960.50;1393762;94;21471;-76
2022/09/10 01:29:22;;;;;;;;;;;;;;;18.03;100.00;99956.59;1394242;94;21746;-75
2022/09/10 01:31:56;;;;;;;12.63;11.33;;;;;;;17.99;100.00;99948.16;1390547;94;20344;-75
2022/09/10 01:34:30;;;;;;;14.57;11.57;;;;;;;17.97;100.00;99939.50;1393209;92;21755;-76
2022/09/10 01:37:08;;;;;;;15.90;13.13;;;;;;;17.97;100.00;99950.20;1395959;92;21383;-76
2022/09/10 01:39:36;;;;;;;18.83;11.83;;;;;;;18.00;100.00;99947.11;1389899;94;22351;-76
2022/09/10 01:42:02;;;;;;;17.67;11.77;;;;;;;18.06;100.00;99948.66;1395825;94;22404;-76
2022/09/10 01:44:48;;;;;;;17.53;12.27;;;;;;;18.10;100.00;99939.20;1373798;94;21694;-76
2022/09/10 01:47:55;;;;;;;18.65;12.73;;;;;;;18.11;100.00;99940.31;1389806;94;21612;-77
2022/09/10 01:50:39;;;;;;;13.83;12.20;;;;;;;18.12;100.00;99938.45;1365272;95;21536;-76
2022/09/10 01:53:38;;;;;;;38.40;13.55;;;;;;;18.14;100.00;99942.57;1366127;95;22439;-76
2022/09/10 01:56:18;;;;;;;13.53;11.30;;;;;;;18.12;100.00;99944.62;1373835;95;21632;-76
2022/09/10 01:58:45;;;;;;;16.23;10.95;;;;;;;18.10;100.00;99956.60;1379395;95;22233;-76
2022/09/10 02:01:22;;;;;;;14.25;10.45;;;;;;;18.04;100.00;99968.97;1350971;95;21408;-75
2022/09/10 02:03:53;;;;;;;21.77;12.35;;;;;;;18.01;100.00;99959.48;1418442;91;21508;-76
2022/09/10 02:06:21;;;;;;;;;;;;;;;17.99;100.00;99948.16;1424351;91;22394;-76
2022/09/10 02:08:51;;;;;;;16.30;12.10;;;;;;;17.93;100.00;99943.63;1421782;91;20266;-73
2022/09/10 02:11:18;;;;;;;13.28;11.25;;;;;;;17.92;100.00;99941.16;1428091;90;21456;-75
2022/09/10 02:13:44;;;;;;;19.30;11.18;;;;;;;17.91;100.00;99927.47;1429026;91;22462;-75
2022/09/10 02:16:16;;;;;;;11.73;10.53;;;;;;;17.93;100.00;99922.22;1419647;91;21449;-75
2022/09/10 02:18:42;;;;;;;15.63;11.08;;;;;;;17.96;100.00;99916.45;1410964;91;22588;-75
2022/09/10 02:21:10;;;;;;;13.22;10.55;;;;;;;17.96;100.00;99901.72;1414223;92;21540;-76
2022/09/10 02:23:45;;;;;;;11.83;10.55;;;;;;;17.99;100.00;99902.64;1430831;91;21412;-76
2022/09/10 02:26:13;;;;;;;12.15;10.85;;;;;;;18.01;100.00;99896.57;1425574;91;21486;-75
2022/09/10 02:28:42;;;;;;;14.03;10.93;;;;;;;18.03;100.00;99898.50;1417841;91;21686;-75
2022/09/10 02:31:09;;;;;;;11.73;10.35;;;;;;;17.99;100.00;99897.28;1416131;91;21545;-76
2022/09/10 02:33:35;;;;;;;13.60;11.20;;;;;;;18.01;100.00;99896.57;1425606;91;21623;-77
2022/09/10 02:36:03;;;;;;;15.28;11.40;;;;;;;18.04;100.00;99889.98;1431888;91;21633;-76
2022/09/10 02:38:29;;;;;;;12.05;10.93;;;;;;;18.06;100.00;99893.77;1427431;91;21597;-76
2022/09/10 02:40:58;;;;;;;16.52;11.43;;;;;;;18.07;100.00;99899.42;1434583;91;22300;-75
2022/09/10 02:43:25;;;;;;;13.83;11.68;;;;;;;18.08;100.00;99896.55;1424662;91;21611;-76
2022/09/10 02:45:57;;;;;;;13.22;11.83;;;;;;;18.10;100.00;99894.48;1426187;92;22359;-75
2022/09/10 02:48:27;;;;;;;16.50;11.63;;;;;;;18.10;100.00;99895.02;1426860;91;21604;-76
2022/09/10 02:50:53;;;;;;;20.88;12.45;;;;;;;18.06;100.00;99906.63;1434234;91;21448;-76
2022/09/10 02:53:20;;;;;;;13.25;11.65;;;;;;;18.07;100.00;99903.44;1443298;91;21486;-77
2022/09/10 02:55:47;;;;;;;14.98;10.72;;;;;;;18.10;100.00;99901.70;1434212;91;21979;-76
2022/09/10 02:58:15;;;;;;;12.73;11.53;;;;;;;18.11;100.00;99897.98;1435260;91;21428;-77
2022/09/10 03:00:43;;;;;;;13.32;10.10;;;;;;;18.14;100.00;99908.28;1425110;91;21426;-76
2022/09/10 03:03:09;;;;;;;14.33;11.80;;;;;;;18.13;100.00;99903.97;1431800;91;21649;-76
2022/09/10 03:05:37;;;;;;;13.35;11.75;;;;;;;18.14;100.00;99901.06;1428787;91;21449;-77
2022/09/10 03:08:04;;;;;;;14.58;10.18;;;;;;;18.19;100.00;99895.09;1418838;91;21664;-78
2022/09/10 03:10:31;;;;;;;11.90;10.38;;;;;;;18.20;100.00;99886.01;1427558;91;21641;-77
2022/09/10 03:12:59;;;;;;;12.80;11.18;;;;;;;18.22;100.00;99880.75;1398039;93;23350;-75
2022/09/10 03:15:26;;;;;;;12.10;10.72;;;;;;;18.20;100.00;99868.08;1431683;91;22083;-75
2022/09/10 03:17:52;;;;;;;10.43;9.35;;;;;;;18.20;100.00;99860.56;1426662;91;22254;-77
2022/09/10 03:20:21;;;;;;;12.75;11.43;;;;;;;18.21;100.00;99850.14;1416989;92;22529;-76
2022/09/10 03:22:46;;;;;;;12.80;10.82;;;;;;;18.20;100.00;99839.14;1373872;94;22573;-75
2022/09/10 03:25:13;;;;;;;15.05;10.58;;;;;;;18.12;100.00;99831.34;1425985;91;21583;-75
2022/09/10 03:27:39;;;;;;;14.98;11.80;;;;;;;18.12;100.00;99830.00;1432208;91;22477;-75
2022/09/10 03:30:07;;;;;;;12.53;9.68;;;;;;;18.13;100.00;99833.00;1419123;91;21553;-75
2022/09/10 03:32:34;;;;;;;13.98;11.78;;;;;;;18.03;100.00;99831.56;1439637;91;21478;-75
2022/09/10 03:35:00;;;;;;;16.20;12.40;;;;;;;17.96;100.00;99828.09;1434875;91;21508;-75
2022/09/10 03:37:26;;;;;;;13.08;11.50;;;;;;;17.98;100.00;99828.72;1429294;91;22395;-76
2022/09/10 03:39:52;;;;;;;12.95;11.55;;;;;;;18.02;100.00;99829.11;1409954;93;21443;-76
2022/09/10 03:42:19;;;;;;;15.65;12.23;;;;;;;18.03;100.00;99831.56;1387486;94;21488;-76
2022/09/10 03:44:44;;;;;;;14.70;11.80;;;;;;;18.09;100.00;99827.74;1393246;94;22523;-75
2022/09/10 03:47:11;;;;;;;17.70;11.80;;;;;;;18.09;100.00;99831.23;1393053;93;21479;-76
2022/09/10 03:49:38;;;;;;;13.03;10.68;;;;;;;18.12;100.00;99832.67;1393824;93;21531;-76
2022/09/10 03:52:05;;;;;;;11.95;10.75;;;;;;;18.14;100.00;99830.09;1396484;93;21487;-75
2022/09/10 03:54:31;;;;;;;18.02;11.60;;;;;;;18.11;100.00;99832.38;1390361;94;21487;-75
2022/09/10 03:57:01;;;;;;;12.75;11.43;;;;;;;18.11;100.00;99833.72;1394306;94;21530;-75
2022/09/10 03:59:25;;;;;;;17.90;11.33;;;;;;;18.12;100.00;99834.02;1393461;94;21531;-75
2022/09/10 04:01:51;;;;;;;25.60;12.55;;;;;;;18.15;100.00;99828.23;1393269;94;21465;-75
2022/09/10 04:04:17;;;;;;;13.98;11.88;;;;;;;18.15;100.00;99839.77;1397127;93;21487;-75
2022/09/10 04:06:44;;;;;;;16.87;11.57;;;;;;;18.15;100.00;99849.13;1398893;93;21531;-75
2022/09/10 04:09:10;;;;;;;13.10;11.80;;;;;;;18.15;100.00;99839.77;1391839;93;22426;-75
2022/09/10 04:11:37;;;;;;;13.62;12.33;;;;;;;18.16;100.00;99840.61;1385272;94;21466;-75
2022/09/10 04:14:03;;;;;;;14.47;11.50;;;;;;;18.20;100.00;99839.14;1426651;91;21516;-75
2022/09/10 04:16:31;;;;;;;13.80;12.25;;;;;;;18.25;100.00;99842.02;1429897;91;21427;-75
2022/09/10 04:18:56;;;;;;;14.15;10.88;;;;;;;18.30;100.00;99836.84;1433885;91;21589;-76
2022/09/10 04:21:23;;;;;;;14.63;11.97;;;;;;;18.30;100.00;99830.64;1428814;91;21546;-75
2022/09/10 04:23:56;;;;;;;11.80;10.60;;;;;;;18.26;100.00;99827.58;1425893;91;21531;-74
2022/09/10 04:26:22;;;;;;;18.10;12.23;;;;;;;18.23;100.00;99834.17;1427829;91;21420;-75
2022/09/10 04:28:48;;;;;;;16.55;11.22;;;;;;;18.23;100.00;99832.02;1431221;91;21501;-74
2022/09/10 04:31:14;;;;;;;15.95;11.50;;;;;;;18.22;100.00;99835.22;1431678;91;21457;-75
2022/09/10 04:33:41;;;;;;;15.05;13.45;;;;;;;18.28;100.00;99834.89;1420392;91;21361;-75
2022/09/10 04:36:07;;;;;;;20.30;12.45;;;;;;;18.34;100.00;99836.72;1429258;91;21501;-74
2022/09/10 04:38:38;;;;;;;13.45;12.13;;;;;;;18.41;100.00;99832.16;1425665;91;21485;-75
2022/09/10 04:41:01;;;;;;;15.90;11.93;;;;;;;18.47;100.00;99832.64;1414471;91;21486;-75
2022/09/10 04:43:28;;;;;;;13.70;12.37;;;;;;;18.54;100.00;99823.75;1401803;93;22442;-74
2022/09/10 04:45:55;;;;;;;16.45;12.82;;;;;;;18.58;100.00;99827.63;1424106;92;21413;-75
2022/09/10 04:48:22;;;;;;;16.57;12.40;;;;;;;18.62;100.00;99824.84;1430230;91;21457;-75
2022/09/10 04:50:51;;;;;;;14.68;12.58;;;;;;;18.63;100.00;99836.67;1432117;91;21530;-74
2022/09/10 04:53:20;;;;;;;15.35;12.53;;;;;;;18.63;100.00;99831.31;1408934;93;21501;-74
2022/09/10 04:55:48;;;;;;;13.40;12.00;;;;;;;18.60;100.00;99825.56;1440257;91;21412;-74
2022/09/10 04:58:14;;;;;;;14.73;12.37;;;;;;;18.54;100.00;99835.28;1428514;91;21442;-75
2022/09/10 05:00:41;;;;;;;13.80;11.97;;;;;;;18.47;100.00;99829.97;1431418;91;21597;-77
2022/09/10 05:03:07;;;;;;;12.82;11.43;;;;;;;18.45;100.00;99824.52;1431702;91;21494;-78
2022/09/10 05:05:34;;;;;;;13.72;11.18;;;;;;;18.42;100.00;99823.60;1427202;91;21493;-77
2022/09/10 05:08:02;;;;;;;13.45;10.98;;;;;;;18.38;100.00;99819.17;1428654;91;21523;-75
2022/09/10 05:10:28;;;;;;;14.13;12.18;;;;;;;18.36;100.00;99815.08;1412932;91;21590;-75
2022/09/10 05:12:54;;;;;;;13.20;11.63;;;;;;;18.37;100.00;99808.16;1390874;93;21487;-75
2022/09/10 05:15:21;;;;;;;18.12;11.40;;;;;;;18.41;100.00;99808.05;1396955;93;23399;-80
2022/09/10 05:17:48;;;;;;;15.00;11.60;;;;;;;18.47;100.00;99807.20;1429940;92;21635;-81
2022/09/10 05:20:14;;;;;;;12.70;11.40;;;;;;;18.55;100.00;99800.73;1429982;92;22108;-80
2022/09/10 05:22:41;;;;;;;13.25;10.55;;;;;;;18.61;100.00;99802.56;1430081;91;21621;-80
2022/09/10 05:25:09;;;;;;;13.78;11.88;;;;;;;18.66;100.00;99799.24;1422686;91;22458;-81
2022/09/10 05:27:35;;;;;;;16.73;11.97;;;;;;;18.70;100.00;99795.08;1429137;91;22091;-80
2022/09/10 05:30:01;;;;;;;13.50;11.70;;;;;;;18.76;100.00;99794.27;1435863;91;21582;-81
2022/09/10 05:32:27;;;;;;;15.60;13.28;;;;;;;18.80;100.00;99786.61;1395920;93;22345;-80
2022/09/10 05:34:54;;;;;;;18.37;13.75;;;;;;;18.80;100.00;99787.95;1394102;93;22551;-80
2022/09/10 05:37:21;;;;;;;16.07;12.98;;;;;;;18.83;100.00;99791.54;1425449;91;21524;-80
2022/09/10 05:39:47;;;;;;;15.08;13.48;;;;;;;18.85;100.00;99788.95;1429862;91;21493;-81
2022/09/10 05:42:14;;;;;;;15.00;13.48;;;;;;;18.88;100.00;99784.48;1400673;93;22470;-80
2022/09/10 05:44:40;;;;;;;27.67;15.08;;;;;;;18.90;100.00;99781.08;1387878;94;21525;-80
2022/09/10 05:47:07;;;;;;;17.30;14.18;;;;;;;18.88;100.00;99785.02;1428116;91;21435;-80
2022/09/10 05:49:33;;;;;;;19.67;12.88;;;;;;;18.89;100.00;99790.67;1428059;91;21493;-80
2022/09/10 05:51:59;;;;;;;15.15;13.45;;;;;;;18.91;100.00;99794.78;1430106;91;21486;-81
2022/09/10 05:54:25;;;;;;;15.85;12.20;;;;;;;18.98;100.00;99801.95;1398099;92;22427;-81
2022/09/10 05:56:52;;;;;;;17.65;14.53;;;;;;;19.00;100.00;99812.77;1378543;94;21453;-81
2022/09/10 05:59:19;;;;;;;20.48;13.85;;;;;;;19.04;100.00;99807.77;1398813;93;21531;-80
2022/09/10 06:01:45;;;;;;;16.30;14.60;;;;;;;19.02;100.00;99808.50;1375401;94;21461;-81
2022/09/10 06:04:11;;;;;;;17.85;13.88;;;;;;;18.98;100.00;99812.67;1392693;93;21509;-81
2022/09/10 06:06:37;;;;;;;17.40;14.63;;;;;;;18.93;100.00;99810.14;1384703;94;22419;-80
2022/09/10 06:09:03;;;;;;;16.95;13.65;;;;;;;18.92;100.00;99804.45;1428615;91;21508;-79
2022/09/10 06:11:29;;;;;;;25.27;14.80;;;;;;;18.91;100.00;99805.50;1422816;91;22412;-80
2022/09/10 06:13:56;;;;;;;15.75;14.05;;;;;;;18.93;100.00;99800.75;1424662;92;21523;-80
2022/09/10 06:16:22;;;;;;;15.30;12.35;;;;;;;18.98;100.00;99804.63;1391222;93;21479;-80
2022/09/10 06:18:49;;;;;;;15.23;13.62;;;;;;;19.00;100.00;99802.03;1422753;92;22399;-80
2022/09/10 06:21:18;;;;;;;16.97;13.58;;;;;;;19.02;100.00;99805.33;1414835;91;21478;-80
2022/09/10 06:23:46;;;;;;;13.30;11.93;;;;;;;19.04;100.00;99805.91;1421727;91;22336;-81
2022/09/10 06:26:18;;;;;;;15.05;12.15;;;;;;;19.05;100.00;99804.08;1403679;93;22441;-80
2022/09/10 06:28:46;;;;;;;14.05;11.55;;;;;;;19.07;100.00;99799.30;1436890;91;21450;-81
2022/09/10 06:31:16;;;;;;;16.73;10.58;;;;;;;18.99;100.00;99800.41;1418844;91;21515;-80
2022/09/10 06:33:45;;;;;;;17.10;11.28;;;;;;;18.93;100.00;99802.59;1430576;91;21566;-80
2022/09/10 06:36:15;;;;;;;12.47;11.22;;;;;;;18.89;100.00;99798.19;1404032;93;22478;-80
2022/09/10 06:38:42;;;;;;;15.48;12.15;;;;;;;18.84;100.00;99794.52;1427128;91;21597;-80
2022/09/10 06:41:12;;;;;;;14.55;10.58;;;;;;;18.77;100.00;99798.59;1425200;91;21546;-80
2022/09/10 06:43:40;;;;;;;11.97;10.13;;;;;;;18.75;100.00;99797.97;1395115;93;21428;-80
2022/09/10 06:46:14;;;;;;;11.00;9.95;;;;;;;18.69;100.00;99794.79;1387347;94;21665;-80
2022/09/10 06:48:41;;;;;;;12.55;8.08;;;;;;;18.62;100.00;99791.34;1373330;96;21414;-80
2022/09/10 06:51:11;;;;;;;10.43;9.38;;;;;;;18.57;100.00;99797.86;1402090;93;21524;-79
2022/09/10 06:53:42;;;;;;;10.63;9.58;;;;;;;18.49;100.00;99797.06;1416402;92;21575;-81
2022/09/10 06:56:13;;;;;;;11.30;9.48;;;;;;;18.44;100.00;99799.59;1409378;91;21500;-81
2022/09/10 06:58:40;;;;;;;9.35;8.28;;;;;;;18.45;100.00;99795.86;1428491;91;21597;-81
2022/09/10 07:01:13;;;;;;;11.40;8.25;;;;;;;18.45;100.00;99798.54;1421391;91;21448;-79
2022/09/10 07:03:42;;;;;;;7.55;6.80;;;;;;;18.42;100.00;99798.97;1428937;91;21420;-79
2022/09/10 07:06:14;;;;;;;6.58;5.28;;;;;;;18.38;100.00;99803.61;1422432;91;22292;-80
2022/09/10 07:08:40;;;;;;;5.85;5.25;;;;;;;18.39;100.00;99803.42;1436982;91;21509;-81
2022/09/10 07:11:12;;;;;;;4.72;3.98;;;;;;;18.44;100.00;99807.62;1426110;91;21560;-80
2022/09/10 07:13:40;;;;;;;4.90;4.47;;;;;;;18.46;100.00;99803.37;1414886;91;22366;-81
2022/09/10 07:16:06;;;;;;;8.55;3.72;;;;;;;18.43;100.00;99809.16;1430481;91;21486;-78
2022/09/10 07:18:33;;;;;;;3.95;3.55;;;;;;;18.42;100.00;99808.34;1421334;91;22458;-78
2022/09/10 07:21:12;;;;;;;4.40;4.00;;;;;;;18.42;100.00;99805.67;1431912;91;21549;-79
2022/09/10 07:23:40;;;;;;;3.60;3.30;;;;;;;18.44;100.00;99804.95;1432363;91;21435;-79
2022/09/10 07:26:10;;;;;;;5.65;3.60;;;;;;;18.56;100.00;99806.42;1430742;91;22104;-78
2022/09/10 07:28:38;;;;;;;4.22;3.50;;;;;;;18.65;100.00;99804.31;1423458;91;21494;-78
2022/09/10 07:31:18;;;;;;;3.95;2.90;;;;;;;18.74;100.00;99805.72;1430485;91;21435;-78
2022/09/10 07:33:46;;;;;;;6.08;2.87;;;;;;;18.80;100.00;99796.81;1432475;91;21574;-79
2022/09/10 07:36:13;;;;;;;3.05;2.77;;;;;;;18.85;100.00;99806.38;1427631;91;21642;-79
2022/09/10 07:38:41;;;;;;;3.98;3.17;;;;;;;18.87;100.00;99808.33;1421477;91;22346;-79
2022/09/10 07:41:10;;;;;;;3.65;3.27;;;;;;;18.91;100.00;99807.37;1429594;91;21530;-78
2022/09/10 07:43:41;;;;;;;3.98;3.40;;;;;;;19.00;100.00;99811.95;1422270;91;21582;-79
2022/09/10 07:46:11;;;;;;;2.62;2.42;;;;;;;19.08;100.00;99814.37;1422765;91;21508;-78
2022/09/10 07:48:40;;;;;;;3.30;3.00;;;;;;;19.14;100.00;99817.52;1424212;91;21435;-79
2022/09/10 07:51:09;;;;;;;4.00;2.90;;;;;;;19.25;100.00;99812.78;1427653;91;21545;-78
2022/09/10 07:53:37;;;;;;;5.47;2.75;;;;;;;19.33;100.00;99821.05;1413609;91;22580;-78
2022/09/10 07:56:06;;;;;;;2.30;2.10;;;;;;;19.35;100.00;99827.84;1426855;91;21553;-79
2022/09/10 07:58:34;;;;;;;3.13;2.80;;;;;;;19.41;100.00;99830.17;1420445;91;21486;-78
2022/09/10 08:01:03;;;;;;;3.92;2.60;;;;;;;19.46;100.00;99823.63;1419978;91;21442;-79
2022/09/10 08:03:29;;;;;;;4.50;2.90;;;;;;;19.51;100.00;99821.64;1430373;91;21501;-79
2022/09/10 08:06:01;;;;;;;3.92;2.20;;;;;;;19.52;100.00;99827.30;1429473;91;22558;-78
2022/09/10 08:08:32;;;;;;;2.30;2.10;;;;;;;19.48;100.00;99823.39;1415237;91;21479;-80
2022/09/10 08:11:17;;;;;;;3.12;2.30;;;;;;;19.58;100.00;99822.39;1415687;91;21716;-80
2022/09/10 08:13:49;;;;;;;2.33;1.87;;;;;;;19.67;100.00;99822.42;1423789;91;21486;-80
2022/09/10 08:16:24;;;;;;;2.87;2.65;;;;;;;19.83;100.00;99831.78;1423625;91;21341;-80
2022/09/10 08:18:50;;;;;;;2.12;1.87;;;;;;;19.99;100.00;99825.80;1396816;92;22640;-80
2022/09/10 08:21:18;;;;;;;2.98;1.80;;;;;;;20.12;100.00;99828.87;1424841;91;21700;-80
2022/09/10 08:23:50;;;;;;;2.60;2.35;;;;;;;20.25;100.00;99831.41;1429449;91;21420;-80
2022/09/10 08:26:17;;;;;;;4.25;2.67;;;;;;;20.33;100.00;99838.85;1442937;90;22551;-80
2022/09/10 08:28:43;;;;;;;5.37;1.92;;;;;;;20.21;100.00;99844.16;1431812;91;21560;-80
2022/09/10 08:31:11;;;;;;;4.70;2.27;;;;;;;20.10;100.00;99844.38;1440359;91;21628;-80
2022/09/10 08:33:39;;;;;;;2.30;1.60;;;;;;;20.00;100.00;99851.63;1438339;91;21405;-80
2022/09/10 08:36:09;;;;;;;1.45;1.30;;;;;;;19.89;99.58;99851.02;1435759;91;22380;-80
2022/09/10 08:38:38;;;;;;;;;;;;;;;19.71;99.79;99850.98;1423591;91;21435;-80
2022/09/10 08:41:27;;;;;;;1.85;1.75;;;;;;;19.58;100.00;99862.64;1426492;91;20244;-80
2022/09/10 08:44:11;;;;;;;2.02;1.50;;;;;;;19.51;100.00;99864.58;1415104;91;21509;-79
2022/09/10 08:47:20;;;;;;;1.50;1.40;;;;;;;19.47;100.00;99863.36;1420032;91;21620;-80
2022/09/10 08:49:57;;;;;;;3.67;1.60;;;;;;;19.37;100.00;99864.68;1427193;91;21515;-80
2022/09/10 08:52:56;;;;;;;2.60;1.65;;;;;;;19.33;100.00;99872.03;1420138;91;21472;-79
2022/09/10 08:55:28;;;;;;;3.15;1.67;;;;;;;19.28;100.00;99867.86;1404351;93;21473;-80
2022/09/10 08:58:18;;;;;;;1.92;1.25;;;;;;;19.23;100.00;99870.37;1384893;94;22467;-80
2022/09/10 09:00:45;;;;;;;2.02;1.85;;;;;;;19.16;100.00;99866.38;1390549;92;22323;-80
2022/09/10 09:03:35;;;;;;;4.70;1.37;;;;;;;19.30;100.00;99865.23;1404577;93;21524;-80
2022/09/10 09:06:05;;;;;;;3.12;1.50;;;;;;;19.41;100.00;99874.97;1350521;96;22448;-80
2022/09/10 09:08:39;;;;;;;3.58;1.07;;;;;;;19.42;100.00;99867.21;1378089;93;21524;-80
2022/09/10 09:11:30;;;;;;;0.93;0.70;;;;;;;19.45;100.00;99856.89;1400354;93;21628;-80
2022/09/10 09:14:35;;;;;;;1.70;0.72;;;;;;;19.33;98.69;99854.09;1397741;93;21515;-79
2022/09/10 09:17:30;;;;;;;3.62;1.10;;;;;;;19.40;100.00;99844.64;1387711;93;21502;-80
2022/09/10 09:20:19;;;;;;;1.37;1.00;;;;;;;19.47;100.00;99846.73;1385651;93;22136;-80
2022/09/10 09:23:18;;;;;;;3.62;0.93;;;;;;;19.65;100.00;99841.98;1385778;95;21576;-80
2022/09/10 09:25:52;;;;;;;1.35;0.57;;;;;;;19.73;98.80;99844.88;1367523;94;21436;-80
2022/09/10 09:28:44;;;;;;;0.78;0.65;;;;;;;19.91;96.76;99850.78;1422491;91;21575;-80
2022/09/10 09:31:25;;;;;;;1.05;0.78;;;;;;;19.95;90.84;99849.31;1421138;91;21559;-80
2022/09/10 09:33:56;;;;;;;0.65;0.50;;;;;;;20.45;95.62;99845.91;1429101;90;21442;-80
2022/09/10 09:36:30;;;;;;;0.93;0.78;;;;;;;20.60;87.30;99855.48;1419671;90;21442;-80
2022/09/10 09:38:57;;;;;;;0.98;0.75;;;;;;;20.87;90.03;99853.26;1405608;91;22176;-81
2022/09/10 09:41:35;;;;;;;14.53;1.37;;;;;;;21.10;88.06;99853.32;1428981;91;22492;-81
2022/09/10 09:44:35;;;;;;;6.45;0.78;;;;;;;21.18;82.62;99861.06;1423953;91;21612;-81
2022/09/10 09:47:01;;;;;;;0.98;0.55;;;;;;;21.46;85.43;99860.94;1422722;91;21563;-81
2022/09/10 09:49:28;;;;;;;2.45;0.80;;;;;;;21.43;81.28;99851.98;1427534;90;23433;-81
2022/09/10 09:51:54;;;;;;;0.60;0.60;;;;;;;21.44;80.98;99852.30;1427629;91;21562;-81
2022/09/10 09:54:25;;;;;;;4.42;0.68;;;;;;;21.23;79.85;99855.50;1429606;91;21375;-81
2022/09/10 09:56:55;;;;;;;1.12;0.70;;;;;;;21.08;79.28;99848.69;1419864;91;21759;-81
2022/09/10 09:59:37;;;;;;;1.02;0.80;;;;;;;21.18;82.37;99850.83;1421403;91;21597;-80
2022/09/10 10:02:24;;;;;;;0.95;0.85;;;;;;;21.25;81.77;99842.64;1423645;91;22187;-80
2022/09/10 10:05:25;;;;;;;0.88;0.85;;;;;;;21.33;82.94;99845.00;1481707;87;23265;-80
2022/09/10 10:07:51;;;;;;;5.28;0.70;;;;;;;21.56;83.07;99846.39;1471989;87;21465;-80
2022/09/10 10:10:24;;;;;;;1.50;0.70;;;;;;;21.75;79.96;99851.64;1492388;87;21667;-75
2022/09/10 10:12:53;;;;;;;2.05;0.80;;;;;;;21.88;80.10;99860.84;1485603;87;21446;-74
2022/09/10 10:15:43;;;;;;;1.32;1.00;;;;;;;22.14;82.16;99852.78;1462785;87;22293;-74
2022/09/10 10:18:30;;;;;;;0.60;0.60;;;;;;;22.16;79.00;99861.98;1478497;87;21633;-74
2022/09/10 10:21:22;;;;;;;1.20;1.07;;;;;;;22.06;79.64;99856.65;1466173;88;21404;-74
2022/09/10 10:23:48;;;;;;;0.80;0.80;;;;;;;21.77;77.22;99849.55;1478638;87;22408;-75
2022/09/10 10:26:54;;;;;;;1.62;1.52;;;;;;;21.62;76.53;99857.56;1450741;89;21492;-74
2022/09/10 10:29:20;;;;;;;2.87;1.07;;;;;;;21.53;77.35;99858.16;1355806;97;21472;-74
2022/09/10 10:31:49;;;;;;;1.05;1.00;;;;;;;21.55;77.55;99860.06;1412968;92;21516;-74
2022/09/10 10:34:44;;;;;;;3.02;0.88;;;;;;;21.61;76.47;99850.55;1403013;93;21473;-74
2022/09/10 10:37:32;;;;;;;0.80;0.80;;;;;;;21.78;76.74;99854.71;1410550;91;21561;-75
2022/09/10 10:40:29;;;;;;;0.70;0.70;;;;;;;22.14;72.79;99856.01;1407916;91;21464;-75
2022/09/10 10:43:24;;;;;;;1.15;1.05;;;;;;;22.57;75.75;99845.31;1403519;93;21510;-74
2022/09/10 10:46:04;;;;;;;1.30;1.20;;;;;;;23.02;72.55;99844.52;1398272;92;22470;-76
2022/09/10 10:48:39;;;;;;;1.00;0.90;;;;;;;23.35;71.99;99844.55;1403639;93;22344;-75
2022/09/10 10:51:23;;;;;;;3.25;1.10;;;;;;;23.64;70.78;99841.20;1396608;93;21458;-76
2022/09/10 10:54:28;;;;;;;1.32;1.22;;;;;;;23.65;66.00;99834.75;1417060;91;21582;-75
2022/09/10 10:57:24;;;;;;;1.45;0.90;;;;;;;23.46;67.96;99843.36;1410098;93;22522;-75
2022/09/10 10:59:56;;;;;;;4.17;1.00;;;;;;;23.25;68.55;99834.95;1421210;91;21557;-76
2022/09/10 11:02:59;;;;;;;1.30;0.93;;;;;;;23.04;68.73;99834.30;1410691;92;21584;-77
2022/09/10 11:05:38;;;;;;;1.60;1.50;;;;;;;22.85;68.27;99832.34;1386636;93;21540;-76
2022/09/10 11:08:19;;;;;;;4.60;1.35;;;;;;;22.73;69.87;99825.66;1399256;91;22418;-74
2022/09/10 11:11:00;;;;;;;1.60;1.25;;;;;;;22.80;70.96;99827.67;1409369;92;22396;-75
2022/09/10 11:13:40;;;;;;;1.42;1.32;;;;;;;22.62;69.72;99835.97;1392668;93;21563;-77
2022/09/10 11:16:19;;;;;;;1.92;1.12;;;;;;;22.62;71.41;99835.44;1402006;94;21474;-75
2022/09/10 11:33:14;;;;;;;1.45;1.20;;;;;;;21.29;78.95;99843.80;1514195;85;28465;-74
2022/09/10 11:35:58;;;;;;;1.80;1.10;;;;;;;21.18;79.94;99851.64;1488343;86;21463;-74
2022/09/10 11:38:46;;;;;;;2.80;1.30;;;;;;;21.26;81.96;99846.96;1489584;87;21580;-74
2022/09/10 11:41:25;;;;;;;2.55;1.30;;;;;;;21.33;82.41;99841.78;1473093;88;21426;-75
2022/09/10 11:44:16;;;;;;;1.30;1.00;;;;;;;21.41;81.58;99840.66;1486101;88;21507;-74
2022/09/10 11:47:01;;;;;;;2.17;1.30;;;;;;;21.54;81.05;99839.06;1479426;88;21603;-75
2022/09/10 11:49:47;;;;;;;4.05;1.37;;;;;;;21.53;79.89;99834.74;1465513;88;21551;-76
2022/09/10 11:52:15;;;;;;;2.42;1.30;;;;;;;21.53;79.10;99832.58;1481291;88;21478;-76
2022/09/10 11:54:45;;;;;;;7.75;1.30;;;;;;;21.43;77.74;99834.49;1479485;88;21485;-75
2022/09/10 11:57:34;;;;;;;1.37;1.10;;;;;;;21.62;81.00;99841.41;1486639;88;21536;-75
2022/09/10 12:00:17;;;;;;;0.90;0.90;;;;;;;21.70;79.47;99842.13;1481582;88;21584;-75